Terminal Aerodrome Forecast
Issued by NWS

Home | Current Version | Previous Version | Graphics & Text | Print | Product List | Glossary On
Versions: 1 2 3 4 5 6 7 8 9 10 11 12 13 14 15 16 17 18 19 20 21 22 23 24 25 26
651
FTUS43 KLOT 182246 AAB
TAFORD
TAF AMD
KORD 182246Z 1823/1924 29008KT P6SM FEW250
     FM182330 05008KT P6SM FEW250
     FM190200 VRB04KT P6SM SKC
     FM191500 12005KT P6SM SCT250
     FM192000 08008KT P6SM SCT200=

USA.gov is the U.S. government's official web portal to all federal, state and local government web resources and services.